LOWS

Salzburg Airport

Salzburg, Austria
TAF LOWS 171115Z 1712/1812 32004KT 9999 FEW070 TX28/1715Z TN17/1803Z BECMG 1717/1719 15005KT CAVOK BECMG 1807/1809 34006KT 9999 FEW070
Issued Valid From Valid To
Aug-17 @ 11:15 UTC
(4 hours ago)
Aug-17 @ 12:00 UTC
(3 hours ago)
Aug-18 @ 12:00 UTC
(in 21 hours)
Aug-17 @ 12:00 to Aug-17 @ 17:00
TAF LOWS 171115Z 1712/1812 32004KT 9999 FEW070 TX28/1715Z TN17/1803Z
Wind Visibility Clouds
320° at 4 knots 10,000+ meters
  • Few at 7,000' AGL
Becoming Aug-17 @ 17:00 to Aug-18 @ 07:00
BECMG 1717/1719 15005KT CAVOK
Wind Visibility Clouds Conditions
150° at 5 knots 10,000+ meters
  • No significant clouds
Becoming Aug-18 @ 07:00 to Aug-18 @ 12:00
BECMG 1807/1809 34006KT 9999 FEW070
Wind Visibility Clouds Conditions
340° at 6 knots 10,000+ meters
  • Few at 7,000' AGL
TAF LOWS 171115Z 1712/1812 32004KT 9999 FEW070 TX28/1715Z TN17/1803Z BECMG 1717/1719 15005KT CAVOK BECMG 1807/1809 34006KT 9999 FEW070
Issued Aug-17 @ 11:15 UTC
(4 hours ago)
Valid From Aug-17 @ 12:00 UTC
(3 hours ago)
Valid To Aug-18 @ 12:00 UTC
(in 21 hours)
Aug-17 @ 12:00 - Aug-17 @ 17:00
Wind Visibility
320° at 4 knots 10,000+ meters
Clouds
  • Few at 7,000' AGL
Becoming Aug-17 @ 17:00 - Aug-18 @ 07:00
Wind Visibility
150° at 5 knots 10,000+ meters
Clouds
  • No significant clouds
Conditions
Becoming Aug-18 @ 07:00 - Aug-18 @ 12:00
Wind Visibility
340° at 6 knots 10,000+ meters
Clouds
  • Few at 7,000' AGL
Conditions